createdAt,value
2022-08-22T00:00:54.100Z,8.30
2022-08-22T00:01:54.118Z,7.70
2022-08-22T00:03:00.025Z,4.50
2022-08-22T00:03:15.629Z,7.20
2022-08-22T00:03:55.070Z,6.70
2022-08-22T00:04:54.050Z,7.00
2022-08-22T00:05:54.085Z,6.60
2022-08-22T00:06:54.068Z,7.60
2022-08-22T00:07:54.068Z,7.20
2022-08-22T00:08:54.121Z,6.70
2022-08-22T00:09:54.083Z,6.80
2022-08-22T00:10:53.972Z,7.50
2022-08-22T00:11:53.952Z,6.70
2022-08-22T00:12:53.930Z,7.00
2022-08-22T00:14:01.212Z,6.80
2022-08-22T00:14:54.925Z,7.60
2022-08-22T00:15:53.903Z,7.70
2022-08-22T00:16:53.944Z,7.60
2022-08-22T00:17:53.944Z,7.40
2022-08-22T00:18:53.932Z,7.30
2022-08-22T00:19:53.945Z,7.80
2022-08-22T00:20:57.153Z,7.40
2022-08-22T00:21:53.864Z,7.50
2022-08-22T00:22:53.873Z,7.00
2022-08-22T00:23:53.875Z,8.20
2022-08-22T00:24:53.915Z,8.60
2022-08-22T00:25:53.805Z,7.40
2022-08-22T00:28:03.969Z,7.80
2022-08-22T00:29:04.040Z,8.60
2022-08-22T00:30:03.981Z,7.00
2022-08-22T00:31:03.920Z,8.90
2022-08-22T00:32:03.913Z,7.90
2022-08-22T00:33:05.943Z,8.20
2022-08-22T00:34:03.890Z,7.80
2022-08-22T00:35:03.925Z,7.60
2022-08-22T00:36:03.881Z,7.80
2022-08-22T00:37:03.906Z,7.80
2022-08-22T00:38:03.920Z,8.20
2022-08-22T00:39:03.830Z,7.30
2022-08-22T00:40:03.926Z,8.10
2022-08-22T00:41:03.825Z,8.30
2022-08-22T00:42:03.772Z,8.50
2022-08-22T00:43:03.769Z,8.20
2022-08-22T00:44:03.785Z,8.00
2022-08-22T00:45:03.764Z,7.40
2022-08-22T00:46:03.772Z,9.00
2022-08-22T00:47:03.781Z,7.70
2022-08-22T00:48:03.773Z,7.60
2022-08-22T00:49:03.693Z,8.20
2022-08-22T00:50:03.778Z,8.30
2022-08-22T00:51:03.727Z,7.90
2022-08-22T00:52:03.709Z,8.10
2022-08-22T00:53:03.714Z,7.60
2022-08-22T00:54:04.112Z,8.40
2022-08-22T00:55:03.718Z,8.50
2022-08-22T00:56:04.674Z,8.00
2022-08-22T00:57:03.642Z,9.00
2022-08-22T00:58:03.656Z,8.90
2022-08-22T00:59:18.033Z,9.40
2022-08-22T01:00:04.557Z,8.10
2022-08-22T01:01:04.654Z,8.40
2022-08-22T01:02:03.516Z,9.00
2022-08-22T01:03:03.566Z,8.30
2022-08-22T01:04:03.567Z,8.50
2022-08-22T01:05:03.577Z,9.30
2022-08-22T01:06:03.516Z,8.90
2022-08-22T01:07:03.484Z,8.80
2022-08-22T01:08:03.496Z,8.50
2022-08-22T01:09:03.497Z,8.80
2022-08-22T01:10:03.511Z,8.60
2022-08-22T01:11:03.448Z,9.00
2022-08-22T01:12:05.495Z,8.60
2022-08-22T01:13:03.427Z,8.80
2022-08-22T01:14:03.437Z,9.10
2022-08-22T01:15:03.348Z,9.50
2022-08-22T01:16:03.367Z,8.70
2022-08-22T01:17:03.359Z,9.00
2022-08-22T01:18:04.400Z,8.00
2022-08-22T01:19:03.369Z,8.50
2022-08-22T01:20:03.267Z,8.60
2022-08-22T01:21:03.300Z,8.70
2022-08-22T01:22:03.283Z,8.00
2022-08-22T01:23:03.304Z,8.40
2022-08-22T01:24:03.294Z,8.50
2022-08-22T01:25:03.310Z,9.20
2022-08-22T01:26:03.243Z,8.20
2022-08-22T01:27:03.215Z,8.00
2022-08-22T01:28:03.222Z,7.70
2022-08-22T01:29:05.371Z,9.10
2022-08-22T01:30:03.260Z,8.40
2022-08-22T01:31:03.173Z,8.40
2022-08-22T01:32:03.146Z,8.50
2022-08-22T01:33:03.152Z,8.60
2022-08-22T01:34:03.161Z,8.70
2022-08-22T01:35:03.072Z,8.10
2022-08-22T01:36:03.097Z,9.10
2022-08-22T01:37:03.089Z,7.80
2022-08-22T01:38:03.083Z,8.60
2022-08-22T01:39:03.102Z,8.30
2022-08-22T01:40:03.045Z,7.90
2022-08-22T01:41:03.006Z,8.50
2022-08-22T01:42:03.033Z,8.10
2022-08-22T01:43:03.022Z,7.70
2022-08-22T01:44:03.944Z,8.10
2022-08-22T01:45:03.032Z,8.80
2022-08-22T01:46:03.954Z,8.10
2022-08-22T01:47:02.977Z,8.70
2022-08-22T01:48:02.945Z,7.60
2022-08-22T01:49:02.955Z,7.60
2022-08-22T01:50:02.968Z,8.60
2022-08-22T01:51:02.874Z,8.30
2022-08-22T01:52:02.906Z,8.60
2022-08-22T01:53:02.877Z,10.70
2022-08-22T01:54:02.887Z,8.80
2022-08-22T01:55:02.899Z,8.50
2022-08-22T01:56:02.781Z,9.10
2022-08-22T01:57:02.794Z,9.20
2022-08-22T01:58:02.764Z,8.80
2022-08-22T01:59:02.748Z,9.20
2022-08-22T02:00:02.727Z,9.30
2022-08-22T02:01:02.778Z,9.20
2022-08-22T02:02:02.716Z,8.60
2022-08-22T02:03:02.697Z,9.40
2022-08-22T02:04:02.679Z,9.60
2022-08-22T02:05:02.669Z,9.30
2022-08-22T02:06:02.656Z,8.80
2022-08-22T02:07:02.654Z,8.90
2022-08-22T02:08:02.631Z,9.10
2022-08-22T02:09:02.618Z,8.50
2022-08-22T02:10:02.598Z,8.60
2022-08-22T02:11:02.591Z,8.30
2022-08-22T02:12:02.601Z,9.10
2022-08-22T02:13:02.650Z,8.20
2022-08-22T02:14:02.626Z,9.10
2022-08-22T02:15:02.637Z,8.60
2022-08-22T02:16:02.528Z,9.30
2022-08-22T02:17:02.537Z,10.50
2022-08-22T02:18:02.594Z,9.10
2022-08-22T02:19:02.551Z,9.30
2022-08-22T02:20:02.561Z,8.50
2022-08-22T02:21:02.480Z,8.30
2022-08-22T02:22:02.473Z,8.90
2022-08-22T02:23:02.522Z,8.60
2022-08-22T02:24:02.481Z,9.70
2022-08-22T02:25:02.497Z,8.40
2022-08-22T02:26:02.394Z,9.80
2022-08-22T02:27:02.403Z,8.90
2022-08-22T02:28:02.376Z,8.40
2022-08-22T02:29:02.343Z,9.30
2022-08-22T02:30:02.318Z,10.10
2022-08-22T02:31:02.334Z,9.50
2022-08-22T02:32:02.337Z,9.80
2022-08-22T02:33:02.390Z,10.00
2022-08-22T02:34:02.344Z,9.70
2022-08-22T02:35:02.364Z,9.40
2022-08-22T02:36:03.284Z,9.70
2022-08-22T02:37:02.265Z,9.50
2022-08-22T02:38:02.298Z,9.90
2022-08-22T02:39:02.277Z,9.80
2022-08-22T02:40:02.341Z,10.20
2022-08-22T02:41:02.186Z,10.40
2022-08-22T02:42:02.164Z,10.00
2022-08-22T02:43:02.244Z,9.80
2022-08-22T02:44:02.215Z,11.00
2022-08-22T02:45:02.216Z,10.00
2022-08-22T02:46:02.225Z,10.90
2022-08-22T02:47:02.097Z,10.40
2022-08-22T02:48:05.335Z,11.10
2022-08-22T02:49:04.125Z,9.60
2022-08-22T02:50:02.146Z,10.50
2022-08-22T02:51:02.174Z,9.60
2022-08-22T02:52:02.046Z,9.50
2022-08-22T02:53:02.106Z,10.30
2022-08-22T02:54:02.089Z,9.50
2022-08-22T02:55:02.091Z,9.30
2022-08-22T02:56:02.088Z,9.70
2022-08-22T02:57:01.998Z,10.20
2022-08-22T02:58:02.046Z,10.50
2022-08-22T02:59:02.008Z,12.90
2022-08-22T03:00:02.019Z,9.80
2022-08-22T03:01:02.062Z,10.20
2022-08-22T03:02:01.929Z,10.30
2022-08-22T03:03:01.990Z,10.30
2022-08-22T03:04:01.939Z,10.00
2022-08-22T03:05:01.949Z,9.90
2022-08-22T03:06:02.144Z,10.90
2022-08-22T03:07:01.876Z,10.90
2022-08-22T03:08:01.912Z,12.00
2022-08-22T03:09:01.874Z,10.30
2022-08-22T03:10:01.812Z,9.70
2022-08-22T03:11:01.783Z,11.70
2022-08-22T03:12:01.783Z,10.40
2022-08-22T03:13:01.879Z,11.30
2022-08-22T03:14:01.748Z,11.50
2022-08-22T03:15:01.741Z,11.20
2022-08-22T03:16:01.734Z,11.10
2022-08-22T03:17:22.823Z,11.00
2022-08-22T03:18:01.785Z,9.70
2022-08-22T03:19:01.774Z,11.50
2022-08-22T03:20:01.740Z,10.30
2022-08-22T03:21:01.761Z,10.40
2022-08-22T03:22:01.761Z,11.40
2022-08-22T03:23:01.645Z,10.70
2022-08-22T03:24:01.707Z,9.90
2022-08-22T03:25:01.693Z,10.40
2022-08-22T03:26:01.688Z,10.00
2022-08-22T03:27:02.614Z,11.30
2022-08-22T03:28:01.737Z,9.70
2022-08-22T03:29:02.674Z,10.50
2022-08-22T03:30:01.605Z,10.80
2022-08-22T03:31:01.618Z,11.20
2022-08-22T03:32:01.626Z,11.60
2022-08-22T03:33:01.546Z,12.10
2022-08-22T03:34:03.616Z,9.70
2022-08-22T03:35:01.550Z,10.80
2022-08-22T03:36:01.556Z,10.30
2022-08-22T03:37:01.565Z,11.10
2022-08-22T03:38:01.471Z,10.90
2022-08-22T03:39:01.516Z,10.30
2022-08-22T03:40:02.574Z,10.50
2022-08-22T03:41:01.490Z,11.00
2022-08-22T03:42:01.496Z,10.10
2022-08-22T03:43:01.497Z,10.70
2022-08-22T03:44:01.440Z,10.30
2022-08-22T03:45:01.413Z,11.40
2022-08-22T03:46:01.407Z,10.40
2022-08-22T03:47:01.416Z,10.00
2022-08-22T03:48:01.326Z,9.60
2022-08-22T03:49:01.356Z,11.60
2022-08-22T03:50:01.308Z,10.60
2022-08-22T04:03:31.377Z,8.30
2022-08-22T04:04:31.344Z,8.20
2022-08-22T04:05:31.327Z,8.70
2022-08-22T04:06:31.323Z,8.60
2022-08-22T04:07:31.721Z,8.20
2022-08-22T04:08:31.295Z,9.70
2022-08-22T04:09:31.306Z,9.80
2022-08-22T04:10:31.267Z,8.40
2022-08-22T04:11:31.261Z,9.50
2022-08-22T04:12:32.240Z,9.60
2022-08-22T04:13:31.226Z,9.20
2022-08-22T04:14:31.227Z,9.40
2022-08-22T04:15:31.229Z,9.20
2022-08-22T04:16:31.189Z,10.40
2022-08-22T04:17:31.189Z,9.30
2022-08-22T04:18:33.452Z,10.00
2022-08-22T04:19:31.162Z,10.10
2022-08-22T04:20:31.120Z,10.00
2022-08-22T04:21:31.119Z,8.80
2022-08-22T04:22:32.099Z,9.90
2022-08-22T04:23:31.099Z,9.00
2022-08-22T04:24:31.089Z,9.00
2022-08-22T04:25:31.079Z,9.60
2022-08-22T04:26:31.058Z,10.20
2022-08-22T04:27:32.030Z,9.80
2022-08-22T04:28:31.029Z,11.90
2022-08-22T04:29:31.031Z,10.30
2022-08-22T04:30:31.001Z,9.60
2022-08-22T04:31:30.989Z,11.40
2022-08-22T04:32:31.002Z,9.80
2022-08-22T04:33:30.952Z,9.60
2022-08-22T04:34:30.959Z,8.60
2022-08-22T04:35:30.946Z,9.20
2022-08-22T04:36:30.922Z,9.20
2022-08-22T04:37:30.901Z,9.50
2022-08-22T04:38:30.873Z,9.70
2022-08-22T04:39:30.882Z,10.20
2022-08-22T04:40:30.872Z,9.50
2022-08-22T04:41:30.853Z,9.60
2022-08-22T04:42:33.286Z,9.50
2022-08-22T04:43:30.831Z,8.80
2022-08-22T04:44:30.873Z,8.50
2022-08-22T04:45:30.805Z,10.30
2022-08-22T04:46:33.604Z,8.20
2022-08-22T04:47:31.765Z,9.20
2022-08-22T04:48:30.744Z,7.80
2022-08-22T04:49:30.775Z,8.40
2022-08-22T04:50:30.739Z,7.90
2022-08-22T04:51:30.723Z,7.80
2022-08-22T04:52:31.695Z,9.10
2022-08-22T04:53:30.697Z,9.50
2022-08-22T04:54:30.695Z,8.60
2022-08-22T04:55:30.655Z,8.20
2022-08-22T04:56:30.654Z,8.50
2022-08-22T04:57:30.639Z,9.70
2022-08-22T04:58:30.626Z,9.10
2022-08-22T04:59:30.618Z,9.10
2022-08-22T05:00:30.595Z,9.10
2022-08-22T05:01:30.703Z,9.30
2022-08-22T05:02:30.567Z,9.30
2022-08-22T05:03:30.560Z,8.50
2022-08-22T05:04:30.556Z,9.40
2022-08-22T05:05:30.536Z,8.50
2022-08-22T05:06:30.508Z,10.50
2022-08-22T05:07:33.926Z,10.00
2022-08-22T05:08:31.487Z,9.30
2022-08-22T05:09:30.496Z,9.90
2022-08-22T05:10:30.458Z,11.00
2022-08-22T05:11:30.462Z,10.00
2022-08-22T05:12:30.437Z,9.40
2022-08-22T05:13:30.439Z,10.70
2022-08-22T05:14:30.425Z,10.20
2022-08-22T05:15:30.417Z,9.40
2022-08-22T05:16:30.389Z,9.90
2022-08-22T05:17:30.379Z,9.90
2022-08-22T05:18:30.360Z,9.90
2022-08-22T05:19:32.192Z,10.30
2022-08-22T05:20:30.322Z,14.30
2022-08-22T05:21:30.318Z,10.40
2022-08-22T05:22:30.302Z,10.70
2022-08-22T05:23:30.302Z,8.50
2022-08-22T05:24:30.292Z,9.10
2022-08-22T05:25:30.273Z,8.20
2022-08-22T05:26:30.252Z,8.70
2022-08-22T05:27:30.243Z,9.20
2022-08-22T05:28:30.222Z,8.20
2022-08-22T05:29:30.226Z,8.20
2022-08-22T05:30:31.219Z,8.40
2022-08-22T05:31:30.182Z,8.70
2022-08-22T05:32:30.173Z,9.00
2022-08-22T05:33:30.177Z,8.20
2022-08-22T05:34:30.142Z,7.30
2022-08-22T05:35:30.141Z,8.30
2022-08-22T05:36:30.112Z,9.80
2022-08-22T05:37:30.104Z,8.60
2022-08-22T05:38:30.103Z,8.10
2022-08-22T05:39:30.098Z,7.30
2022-08-22T05:40:30.063Z,7.40
2022-08-22T05:41:30.054Z,7.30
2022-08-22T05:42:30.044Z,8.50
2022-08-22T05:43:30.036Z,7.80
2022-08-22T05:44:30.014Z,8.30
2022-08-22T05:45:30.014Z,8.60
2022-08-22T05:46:29.986Z,8.40
2022-08-22T05:47:29.988Z,8.80
2022-08-22T05:48:29.965Z,8.00
2022-08-22T05:49:30.957Z,7.90
2022-08-22T05:50:29.956Z,8.00
2022-08-22T05:51:29.937Z,7.20
2022-08-22T05:52:29.904Z,8.10
2022-08-22T05:53:29.906Z,7.40
2022-08-22T05:54:34.400Z,7.20
2022-08-22T05:55:29.885Z,8.50
2022-08-22T05:56:29.869Z,7.10
2022-08-22T05:57:29.849Z,7.60
2022-08-22T05:58:29.838Z,9.00
2022-08-22T05:59:29.822Z,7.30
2022-08-22T06:00:29.863Z,7.80
2022-08-22T06:01:29.812Z,8.70
2022-08-22T06:02:29.800Z,7.10
2022-08-22T06:03:29.775Z,7.00
2022-08-22T06:04:29.769Z,7.40
2022-08-22T06:05:29.755Z,7.00
2022-08-22T06:06:29.730Z,8.60
2022-08-22T06:07:29.729Z,9.20
2022-08-22T06:08:29.699Z,7.10
2022-08-22T06:09:35.331Z,6.70
2022-08-22T06:10:30.701Z,6.20
2022-08-22T06:11:33.721Z,6.90
2022-08-22T06:12:29.640Z,8.80
2022-08-22T06:13:29.653Z,6.20
2022-08-22T06:14:29.630Z,8.40
2022-08-22T06:15:29.616Z,6.10
2022-08-22T06:16:29.599Z,6.50
2022-08-22T06:17:29.585Z,9.80
2022-08-22T06:18:29.821Z,6.00
2022-08-22T06:19:29.564Z,9.10
2022-08-22T06:20:29.561Z,8.10
2022-08-22T06:21:32.599Z,7.20
2022-08-22T06:22:30.512Z,6.90
2022-08-22T06:23:29.523Z,7.50
2022-08-22T06:24:29.499Z,7.50
2022-08-22T06:25:29.474Z,7.20
2022-08-22T06:26:29.481Z,7.40
2022-08-22T06:27:31.177Z,8.70
2022-08-22T06:28:29.454Z,8.30
2022-08-22T06:29:29.416Z,7.30
2022-08-22T06:30:29.420Z,7.50
2022-08-22T06:31:29.415Z,6.80
2022-08-22T06:32:58.460Z,10.00
2022-08-22T06:33:30.375Z,7.90
2022-08-22T06:34:29.354Z,6.90
2022-08-22T06:35:29.364Z,6.00
2022-08-22T06:36:29.345Z,7.40
2022-08-22T06:37:29.314Z,8.00
2022-08-22T06:38:29.320Z,8.20
2022-08-22T06:39:29.304Z,6.90
2022-08-22T06:40:29.290Z,6.80
2022-08-22T06:41:29.275Z,5.70
2022-08-22T06:42:29.267Z,6.90
2022-08-22T06:43:29.245Z,7.20
2022-08-22T06:44:29.227Z,5.90
2022-08-22T06:45:29.230Z,7.50
2022-08-22T06:46:29.217Z,6.50
2022-08-22T06:47:29.188Z,5.30
2022-08-22T06:48:29.184Z,6.30
2022-08-22T06:49:29.157Z,8.10
2022-08-22T06:50:29.157Z,7.40
2022-08-22T06:51:29.146Z,5.20
2022-08-22T06:52:29.148Z,5.20
2022-08-22T06:53:29.109Z,6.30
2022-08-22T06:54:33.779Z,5.80
2022-08-22T06:55:30.099Z,6.50
2022-08-22T06:56:30.093Z,8.30
2022-08-22T06:57:29.057Z,5.70
2022-08-22T06:58:33.853Z,7.30
2022-08-22T06:59:30.031Z,6.40
2022-08-22T07:00:29.022Z,6.20
2022-08-22T07:01:29.042Z,6.50
2022-08-22T07:02:29.009Z,4.70
2022-08-22T07:03:28.982Z,5.50
2022-08-22T07:04:28.980Z,4.70
2022-08-22T07:05:28.960Z,5.70
2022-08-22T07:06:28.942Z,5.60
2022-08-22T07:07:28.933Z,7.30
2022-08-22T07:08:28.953Z,4.80
2022-08-22T07:09:28.902Z,6.10
2022-08-22T07:10:28.886Z,6.30
2022-08-22T07:11:28.900Z,7.70
2022-08-22T07:12:28.858Z,8.90
2022-08-22T07:13:28.834Z,4.70
2022-08-22T07:14:28.838Z,7.30
2022-08-22T07:15:28.832Z,5.50
2022-08-22T07:16:28.822Z,4.30
2022-08-22T07:17:28.807Z,6.30
2022-08-22T07:18:28.787Z,6.30
2022-08-22T07:19:28.751Z,4.90
2022-08-22T07:20:28.745Z,5.10
2022-08-22T07:21:28.764Z,4.30
2022-08-22T07:22:28.736Z,6.20
2022-08-22T07:23:28.713Z,6.10
2022-08-22T07:24:28.705Z,6.20
2022-08-22T07:25:28.686Z,11.50
2022-08-22T07:26:28.697Z,6.80
2022-08-22T07:27:28.657Z,6.50
2022-08-22T07:28:37.150Z,12.10
2022-08-22T07:29:29.634Z,7.00
2022-08-22T07:30:28.732Z,6.10
2022-08-22T07:31:28.622Z,7.70
2022-08-22T07:32:28.609Z,6.40
2022-08-22T07:33:28.590Z,6.50
2022-08-22T07:34:28.569Z,6.30
2022-08-22T07:35:28.549Z,6.30
2022-08-22T07:36:31.834Z,4.40
2022-08-22T07:37:28.540Z,7.20
2022-08-22T07:38:28.520Z,7.00
2022-08-22T07:39:28.502Z,4.20
2022-08-22T07:40:28.505Z,4.60
2022-08-22T07:41:28.487Z,4.90
2022-08-22T07:42:30.262Z,10.70
2022-08-22T07:43:28.500Z,4.00
2022-08-22T07:44:28.443Z,3.70
2022-08-22T07:45:28.420Z,4.20
2022-08-22T07:46:28.421Z,4.60
2022-08-22T07:47:28.401Z,3.90
2022-08-22T07:48:28.385Z,4.30
2022-08-22T07:49:28.381Z,4.50
2022-08-22T07:50:28.365Z,5.30
2022-08-22T07:51:29.367Z,3.80
2022-08-22T07:52:28.343Z,4.60
2022-08-22T07:53:28.312Z,4.00
2022-08-22T07:54:28.382Z,5.00
2022-08-22T07:55:28.282Z,3.80
2022-08-22T07:56:28.294Z,5.00
2022-08-22T07:57:29.262Z,4.60
2022-08-22T07:58:28.261Z,3.50
2022-08-22T07:59:28.229Z,3.20
2022-08-22T08:00:28.227Z,3.40
2022-08-22T08:01:29.300Z,3.30
2022-08-22T08:02:29.194Z,6.10
2022-08-22T08:03:28.174Z,3.60
2022-08-22T08:04:28.166Z,4.50
2022-08-22T08:05:28.145Z,3.90
2022-08-22T08:06:28.158Z,4.40
2022-08-22T08:07:29.134Z,5.80
2022-08-22T08:08:28.120Z,3.90
2022-08-22T08:09:28.096Z,5.10
2022-08-22T08:10:28.108Z,7.50
2022-08-22T08:11:29.088Z,4.00
2022-08-22T08:12:28.078Z,4.60
2022-08-22T08:13:28.058Z,5.20
2022-08-22T08:14:28.048Z,4.60
2022-08-22T08:15:28.018Z,6.50
2022-08-22T08:16:28.029Z,4.60
2022-08-22T08:17:32.005Z,4.90
2022-08-22T08:18:27.990Z,5.90
2022-08-22T08:19:27.978Z,5.20
2022-08-22T08:20:27.979Z,3.10
2022-08-22T08:21:27.963Z,4.90
2022-08-22T08:22:27.941Z,3.90
2022-08-22T08:23:27.930Z,8.40
2022-08-22T08:24:27.920Z,5.20
2022-08-22T08:25:28.902Z,5.50
2022-08-22T08:26:27.906Z,3.50
2022-08-22T08:27:27.875Z,3.30
2022-08-22T08:28:28.861Z,4.70
2022-08-22T08:29:27.851Z,5.00
2022-08-22T08:30:27.845Z,4.80
2022-08-22T08:31:27.821Z,5.70
2022-08-22T08:32:27.822Z,5.70
2022-08-22T08:33:28.786Z,5.10
2022-08-22T08:34:27.791Z,3.30
2022-08-22T08:35:27.779Z,5.60
2022-08-22T08:36:27.771Z,3.50
2022-08-22T08:37:27.750Z,4.90
2022-08-22T08:38:27.745Z,3.20
2022-08-22T08:39:28.578Z,3.60
2022-08-22T08:40:28.752Z,4.90
2022-08-22T08:41:27.707Z,4.30
2022-08-22T08:42:27.677Z,4.50
2022-08-22T08:43:28.655Z,4.70
2022-08-22T08:44:28.664Z,3.10
2022-08-22T08:45:28.996Z,6.30
2022-08-22T08:46:27.654Z,3.40
2022-08-22T08:47:27.616Z,7.90
2022-08-22T08:48:27.615Z,3.10
2022-08-22T08:49:27.596Z,4.50
2022-08-22T08:50:27.574Z,4.10
2022-08-22T08:51:27.589Z,4.30
2022-08-22T08:52:27.548Z,4.70
2022-08-22T08:53:27.541Z,5.50
2022-08-22T08:54:27.547Z,3.20
2022-08-22T08:55:27.548Z,3.00
2022-08-22T08:56:27.517Z,2.70
2022-08-22T08:57:27.511Z,5.50
2022-08-22T08:58:27.481Z,7.80
2022-08-22T08:59:27.472Z,7.70
2022-08-22T09:00:30.331Z,3.50
2022-08-22T09:01:28.617Z,2.70
2022-08-22T09:02:27.428Z,3.00
2022-08-22T09:03:30.923Z,4.30
2022-08-22T09:04:27.426Z,6.80
2022-08-22T09:05:27.424Z,4.70
2022-08-22T09:06:27.391Z,3.40
2022-08-22T09:07:28.360Z,3.90
2022-08-22T09:08:27.596Z,7.10
2022-08-22T09:09:27.351Z,4.00
2022-08-22T09:10:29.557Z,4.80
2022-08-22T09:11:28.584Z,3.60
2022-08-22T09:12:27.332Z,4.60
2022-08-22T09:13:27.291Z,4.80
2022-08-22T09:14:27.299Z,4.20
2022-08-22T09:15:27.313Z,4.60
2022-08-22T09:16:27.270Z,5.20
2022-08-22T09:17:27.272Z,2.60
2022-08-22T09:18:27.226Z,4.60
2022-08-22T09:19:27.208Z,3.20
2022-08-22T09:20:27.205Z,2.30
2022-08-22T09:21:30.765Z,3.00
2022-08-22T09:22:27.176Z,6.30
2022-08-22T09:23:28.167Z,3.70
2022-08-22T09:24:27.180Z,4.00
2022-08-22T09:25:36.744Z,3.40
2022-08-22T09:26:28.145Z,4.10
2022-08-22T09:27:27.109Z,2.50
2022-08-22T09:28:28.299Z,3.30
2022-08-22T09:29:28.996Z,2.00
2022-08-22T09:30:28.607Z,4.30
2022-08-22T09:31:44.880Z,3.50
2022-08-22T09:32:28.057Z,4.30
2022-08-22T09:33:28.282Z,4.50
2022-08-22T09:34:27.034Z,2.60
2022-08-22T09:35:27.009Z,4.20
2022-08-22T09:36:28.019Z,2.60
2022-08-22T09:37:26.986Z,6.20
2022-08-22T09:38:26.969Z,4.50
2022-08-22T09:39:26.956Z,5.60
2022-08-22T09:41:27.062Z,3.70
2022-08-22T09:42:26.928Z,3.00
2022-08-22T09:43:26.897Z,2.30
2022-08-22T09:44:26.886Z,3.30
2022-08-22T09:45:26.901Z,3.10
2022-08-22T09:46:31.502Z,3.80
2022-08-22T09:47:27.861Z,4.70
2022-08-22T10:04:00.509Z,5.40
2022-08-22T10:05:00.501Z,3.30
2022-08-22T10:06:01.480Z,6.50
2022-08-22T10:07:00.489Z,3.70
2022-08-22T10:08:00.472Z,2.40
2022-08-22T10:09:00.440Z,4.00
2022-08-22T10:10:00.848Z,2.00
2022-08-22T10:11:01.428Z,2.70
2022-08-22T10:12:00.435Z,2.80
2022-08-22T10:13:00.627Z,2.50
2022-08-22T10:14:01.695Z,2.90
2022-08-22T10:15:00.371Z,4.30
2022-08-22T10:16:00.378Z,5.80
2022-08-22T10:17:00.342Z,3.80
2022-08-22T10:18:00.352Z,3.40
2022-08-22T10:19:00.780Z,4.10
2022-08-22T10:20:00.316Z,3.60
2022-08-22T10:21:00.308Z,2.80
2022-08-22T10:22:00.282Z,4.00
2022-08-22T10:23:00.636Z,4.40
2022-08-22T10:24:00.247Z,3.50
2022-08-22T10:25:00.256Z,6.90
2022-08-22T10:26:00.247Z,2.90
2022-08-22T10:27:00.225Z,2.80
2022-08-22T10:28:00.214Z,2.40
2022-08-22T10:29:00.185Z,2.90
2022-08-22T10:30:00.197Z,3.60
2022-08-22T10:31:00.166Z,2.50
2022-08-22T10:32:01.356Z,2.60
2022-08-22T10:33:01.446Z,3.00
2022-08-22T10:34:00.139Z,3.90
2022-08-22T10:35:00.112Z,1.80
2022-08-22T10:36:00.099Z,3.80
2022-08-22T10:37:00.082Z,3.20
2022-08-22T10:38:00.085Z,2.50
2022-08-22T10:39:00.059Z,3.00
2022-08-22T10:40:00.169Z,2.60
2022-08-22T10:41:00.029Z,2.20
2022-08-22T10:42:00.029Z,3.60
2022-08-22T10:43:00.144Z,2.80
2022-08-22T10:44:01.261Z,2.90
2022-08-22T10:44:59.979Z,2.20
2022-08-22T10:45:59.978Z,3.50
2022-08-22T10:46:59.971Z,1.80
2022-08-22T10:47:59.982Z,5.10
2022-08-22T10:48:59.921Z,2.50
2022-08-22T10:50:00.921Z,3.20
2022-08-22T10:50:59.917Z,3.40
2022-08-22T10:52:00.057Z,3.20
2022-08-22T10:53:01.094Z,1.90
2022-08-22T10:53:59.874Z,4.30
2022-08-22T10:54:59.926Z,6.50
2022-08-22T10:55:59.844Z,3.10
2022-08-22T10:57:01.937Z,4.00
2022-08-22T10:57:59.804Z,3.90
2022-08-22T10:58:59.813Z,3.70
2022-08-22T10:59:59.793Z,5.10
2022-08-22T11:00:59.822Z,2.40
2022-08-22T11:02:00.800Z,4.40
2022-08-22T11:02:59.987Z,3.20
2022-08-22T11:03:59.745Z,2.00
2022-08-22T11:04:59.725Z,1.80
2022-08-22T11:05:59.718Z,3.00
2022-08-22T11:07:00.695Z,1.70
2022-08-22T11:07:59.687Z,3.20
2022-08-22T11:08:59.684Z,2.50
2022-08-22T11:09:59.660Z,2.30
2022-08-22T11:10:59.646Z,4.10
2022-08-22T11:11:59.635Z,2.80
2022-08-22T11:12:59.718Z,3.50
2022-08-22T11:13:59.609Z,2.50
2022-08-22T11:14:59.611Z,3.10
2022-08-22T11:15:59.588Z,3.00
2022-08-22T11:16:59.573Z,3.60
2022-08-22T11:17:59.580Z,2.10
2022-08-22T11:19:14.683Z,2.50
2022-08-22T11:20:00.537Z,3.50
2022-08-22T11:20:59.528Z,1.80
2022-08-22T11:21:59.502Z,2.60
2022-08-22T11:22:59.737Z,1.90
2022-08-22T11:24:00.551Z,2.90
2022-08-22T11:25:04.037Z,1.90
2022-08-22T11:26:00.451Z,3.30
2022-08-22T11:26:59.433Z,3.10
2022-08-22T11:27:59.435Z,3.80
2022-08-22T11:29:11.285Z,4.30
2022-08-22T11:30:00.411Z,3.60
2022-08-22T11:30:59.392Z,2.80
2022-08-22T11:32:05.843Z,3.90
2022-08-22T11:33:01.534Z,4.70
2022-08-22T11:33:59.376Z,2.60
2022-08-22T11:34:59.345Z,3.80
2022-08-22T11:35:59.337Z,5.90
2022-08-22T11:37:00.354Z,3.90
2022-08-22T11:38:00.326Z,2.80
2022-08-22T11:38:59.307Z,4.10
2022-08-22T11:39:59.307Z,4.80
2022-08-22T11:40:59.277Z,3.10
2022-08-22T11:41:59.265Z,5.60
2022-08-22T11:43:02.980Z,1.90
2022-08-22T11:43:59.258Z,2.20
2022-08-22T11:44:59.217Z,3.40
2022-08-22T11:45:59.199Z,2.20
2022-08-22T11:46:59.202Z,3.50
2022-08-22T11:48:00.182Z,2.30
2022-08-22T11:48:59.179Z,1.70
2022-08-22T11:49:59.164Z,3.90
2022-08-22T11:50:59.154Z,1.50
2022-08-22T11:51:59.144Z,3.80
2022-08-22T11:52:59.133Z,1.70
2022-08-22T11:53:59.150Z,2.10
2022-08-22T11:54:59.091Z,2.70
2022-08-22T11:55:59.121Z,2.30
2022-08-22T11:56:59.064Z,6.30
2022-08-22T11:57:59.071Z,2.00
2022-08-22T11:58:59.063Z,2.30
2022-08-22T11:59:59.080Z,2.80
2022-08-22T12:00:59.026Z,3.50
2022-08-22T12:01:59.081Z,2.60
2022-08-22T12:02:59.159Z,2.00
2022-08-22T12:03:58.995Z,2.30
2022-08-22T12:04:58.963Z,3.20
2022-08-22T12:05:58.958Z,2.90
2022-08-22T12:06:58.934Z,3.60
2022-08-22T12:07:58.975Z,2.40
2022-08-22T12:08:58.924Z,3.30
2022-08-22T12:09:58.908Z,1.70
2022-08-22T12:10:58.907Z,3.00
2022-08-22T12:11:58.885Z,2.10
2022-08-22T12:13:00.761Z,1.80
2022-08-22T12:14:05.145Z,2.10
2022-08-22T12:14:59.842Z,2.70
2022-08-22T12:15:58.839Z,2.20
2022-08-22T12:16:58.812Z,2.10
2022-08-22T12:18:01.463Z,2.50
2022-08-22T12:18:58.806Z,7.30
2022-08-22T12:20:16.446Z,1.50
2022-08-22T12:20:59.760Z,3.20
2022-08-22T12:21:58.750Z,3.00
2022-08-22T12:22:58.741Z,2.50
2022-08-22T12:23:58.739Z,2.20
2022-08-22T12:25:02.673Z,1.60
2022-08-22T12:25:58.714Z,3.50
2022-08-22T12:26:58.678Z,4.20
2022-08-22T12:27:58.681Z,3.20
2022-08-22T12:28:58.681Z,1.90
2022-08-22T12:29:58.643Z,4.10
2022-08-22T12:30:58.653Z,2.30
2022-08-22T12:31:58.653Z,2.00
2022-08-22T12:32:58.877Z,7.60
2022-08-22T12:33:58.606Z,4.00
2022-08-22T12:34:58.610Z,2.30
2022-08-22T12:35:58.594Z,2.30
2022-08-22T12:36:58.554Z,3.30
2022-08-22T12:37:58.534Z,2.40
2022-08-22T12:38:58.538Z,3.40
2022-08-22T12:39:58.609Z,2.80
2022-08-22T12:40:58.505Z,1.70
2022-08-22T12:41:58.487Z,1.80
2022-08-22T12:42:58.477Z,4.30
2022-08-22T12:43:58.492Z,3.00
2022-08-22T12:44:58.474Z,2.10
2022-08-22T12:45:58.438Z,2.10
2022-08-22T12:46:58.429Z,2.60
2022-08-22T12:47:58.563Z,2.30
2022-08-22T12:48:58.408Z,1.70
2022-08-22T12:49:58.424Z,1.90
2022-08-22T12:50:59.759Z,2.10
2022-08-22T12:52:04.352Z,3.30
2022-08-22T12:53:00.586Z,3.90
2022-08-22T12:53:58.349Z,1.50
2022-08-22T12:54:58.359Z,2.60
2022-08-22T12:55:58.317Z,2.10
2022-08-22T12:56:58.319Z,1.70
2022-08-22T12:57:58.292Z,1.90
2022-08-22T12:58:58.272Z,2.50
2022-08-22T12:59:58.375Z,2.40
2022-08-22T13:00:58.313Z,2.50
2022-08-22T13:01:58.256Z,2.20
2022-08-22T13:02:58.601Z,1.10
2022-08-22T13:03:58.293Z,2.70
2022-08-22T13:04:58.221Z,1.60
2022-08-22T13:06:00.020Z,2.10
2022-08-22T13:06:58.186Z,1.90
2022-08-22T13:08:02.400Z,5.20
2022-08-22T13:08:59.145Z,3.70
2022-08-22T13:09:58.156Z,2.10
2022-08-22T13:10:58.135Z,1.70
2022-08-22T13:11:58.174Z,1.90
2022-08-22T13:12:58.105Z,2.40
2022-08-22T13:13:58.093Z,1.90
2022-08-22T13:14:59.087Z,2.00
2022-08-22T13:15:59.086Z,3.50
2022-08-22T13:16:58.070Z,1.80
2022-08-22T13:18:08.890Z,1.90
2022-08-22T13:18:59.032Z,2.20
2022-08-22T13:19:58.041Z,3.20
2022-08-22T13:20:58.010Z,2.10
2022-08-22T13:21:58.059Z,3.40
2022-08-22T13:22:58.039Z,2.90
2022-08-22T13:23:57.995Z,3.10
2022-08-22T13:24:57.981Z,2.70
2022-08-22T13:25:57.964Z,2.70
2022-08-22T13:26:57.965Z,2.50
2022-08-22T13:27:59.226Z,2.20
2022-08-22T13:29:15.566Z,2.50
2022-08-22T13:29:58.913Z,3.00
2022-08-22T13:32:08.135Z,3.40
2022-08-22T13:33:08.650Z,3.00
2022-08-22T13:34:08.083Z,3.40
2022-08-22T13:35:08.156Z,3.50
2022-08-22T13:36:08.126Z,3.20
2022-08-22T13:37:10.274Z,1.80
2022-08-22T13:38:08.147Z,3.30
2022-08-22T13:39:08.040Z,3.90
2022-08-22T13:40:08.164Z,3.30
2022-08-22T13:41:08.048Z,2.20
2022-08-22T13:42:20.360Z,3.70
2022-08-22T13:43:10.021Z,1.50
2022-08-22T13:44:08.083Z,2.00
2022-08-22T13:45:08.010Z,4.30
2022-08-22T13:46:10.931Z,1.70